Main page
METAR-TAF:

METAR-TAF

Airports :

Gran Canaria, Spain

Gran Canaria Airport

latitude: 27-56N, longitude: 015-23W, elevation: 23 m

Current weather observation

The report was made 33 minutes ago, at 11:30 UTC
Wind 24 kt from the North/Northeast
Temperature 27°C
Humidity 62%
Pressure 1012 hPa
Visibility: 9000 m

METAR: GCLP 261130Z 02024KT 9000 NSC 27/19 Q1012 NOSIG

Time: 13:03 (12:03 UTC)


TAF: missing

Weather observations and forecasts of more than 4000 airports (METAR and TAF reports).

The available stations are represented by yellow and red dots on the map.

Hover mouse over dot to see the name of the station.

Then click to see weather observations and forecasts.

To change the map : click on the green buttons with a black cross to zoom in, on the green button with a dash to zoom out, or on the green arrows for adjacent maps.


METAR-TAF: